Time;durP1;ratioP1;P1;durP2;ratioP2;P2;SDS_P1;SDS_P2;PMS_P1;PMS_P2;Temp;Humidity;BMP_temperature;BMP_pressure;BME280_temperature;BME280_humidity;BME280_pressure;Samples;Min_cycle;Max_cycle;Signal;HPM_P1;HPM_P2
2021/09/08 00:00:52;;;;;;;14.30;9.60;;;18.70;72.10;;;;;;4943879;28;20980;-46
2021/09/08 00:03:19;;;;;;;14.70;10.77;;;18.70;72.10;;;;;;4945232;28;21004;-46
2021/09/08 00:05:47;;;;;;;14.40;9.00;;;18.60;72.20;;;;;;4947239;29;20470;-46
2021/09/08 00:08:13;;;;;;;13.70;11.23;;;18.60;72.10;;;;;;4959164;28;21131;-46
2021/09/08 00:10:40;;;;;;;12.50;10.30;;;18.60;72.10;;;;;;4948360;29;20471;-46
2021/09/08 00:13:07;;;;;;;14.73;11.07;;;18.60;72.20;;;;;;4947682;28;20869;-46
2021/09/08 00:15:34;;;;;;;12.00;10.07;;;18.50;72.20;;;;;;4950993;28;20466;-47
2021/09/08 00:18:01;;;;;;;13.40;10.20;;;18.50;72.10;;;;;;4949220;28;20459;-47
2021/09/08 00:20:27;;;;;;;14.80;11.30;;;18.50;72.20;;;;;;4946698;28;20529;-47
2021/09/08 00:22:54;;;;;;;13.67;10.10;;;18.50;72.20;;;;;;4949668;28;20467;-47
2021/09/08 00:25:21;;;;;;;14.77;10.17;;;18.40;72.30;;;;;;4945762;28;20477;-47
2021/09/08 00:27:50;;;;;;;12.93;10.33;;;18.40;72.30;;;;;;4944354;28;20463;-47
2021/09/08 00:30:18;;;;;;;11.83;9.70;;;18.40;72.40;;;;;;4949703;28;20462;-47
2021/09/08 00:32:45;;;;;;;12.80;9.53;;;18.30;72.50;;;;;;4948279;28;20483;-47
2021/09/08 00:35:12;;;;;;;13.03;9.50;;;18.30;72.60;;;;;;4948769;28;20467;-47
2021/09/08 00:37:39;;;;;;;13.60;9.43;;;18.30;72.70;;;;;;4945710;28;20459;-47
2021/09/08 00:40:09;;;;;;;11.30;7.77;;;18.30;72.80;;;;;;4949111;28;20474;-47
2021/09/08 00:42:35;;;;;;;12.63;9.63;;;18.20;72.90;;;;;;4948249;28;20864;-47
2021/09/08 00:45:03;;;;;;;12.33;8.73;;;18.20;73.00;;;;;;4948978;28;20988;-47
2021/09/08 00:47:31;;;;;;;14.93;9.50;;;18.20;73.10;;;;;;4949010;28;20533;-47
2021/09/08 00:49:57;;;;;;;11.27;8.73;;;18.20;73.10;;;;;;4947732;28;20845;-47
2021/09/08 00:52:25;;;;;;;13.50;9.70;;;18.10;73.30;;;;;;4950654;28;20788;-47
2021/09/08 00:54:52;;;;;;;16.03;8.93;;;18.10;73.30;;;;;;4950208;28;20452;-47
2021/09/08 00:57:21;;;;;;;14.63;9.90;;;18.10;73.30;;;;;;4949687;28;20463;-47
2021/09/08 00:59:48;;;;;;;15.13;9.73;;;18.10;73.40;;;;;;4948807;28;20554;-47
2021/09/08 01:02:15;;;;;;;15.77;9.77;;;18.10;73.50;;;;;;4945348;28;20940;-47
2021/09/08 01:04:42;;;;;;;11.83;9.03;;;18.10;73.50;;;;;;4947572;28;20854;-47
2021/09/08 01:07:10;;;;;;;13.10;9.67;;;18.10;73.60;;;;;;4945970;28;20463;-47
2021/09/08 01:09:37;;;;;;;16.50;11.30;;;18.00;73.60;;;;;;4949734;28;20557;-47
2021/09/08 01:12:04;;;;;;;13.30;8.67;;;18.00;73.70;;;;;;4945458;28;20502;-47
2021/09/08 01:14:31;;;;;;;13.27;8.70;;;18.00;73.70;;;;;;4946861;28;20479;-47
2021/09/08 01:16:58;;;;;;;19.27;10.67;;;17.90;73.80;;;;;;4950835;28;20482;-47
2021/09/08 01:19:25;;;;;;;14.57;9.80;;;17.90;73.90;;;;;;4949634;28;20496;-47
2021/09/08 01:21:52;;;;;;;13.60;9.23;;;17.90;73.90;;;;;;4949056;28;20475;-46
2021/09/08 01:24:19;;;;;;;16.30;9.80;;;17.90;74.00;;;;;;4947392;28;20471;-47
2021/09/08 01:26:48;;;;;;;15.27;9.13;;;17.90;74.00;;;;;;4949817;28;20457;-47
2021/09/08 01:29:15;;;;;;;13.10;9.07;;;17.80;74.10;;;;;;4951800;28;21424;-47
2021/09/08 01:31:42;;;;;;;15.03;10.97;;;17.80;74.20;;;;;;4948590;28;20491;-47
2021/09/08 01:34:09;;;;;;;14.17;10.00;;;17.80;74.10;;;;;;4951074;28;20482;-47
2021/09/08 01:36:40;;;;;;;13.80;8.83;;;17.80;74.20;;;;;;4945532;29;20455;-47
2021/09/08 01:39:08;;;;;;;17.93;10.47;;;17.80;74.20;;;;;;4949694;28;21063;-47
2021/09/08 01:41:35;;;;;;;15.07;9.07;;;17.70;74.30;;;;;;4947251;28;20459;-47
2021/09/08 01:44:02;;;;;;;12.77;9.60;;;17.70;74.30;;;;;;4947979;28;20467;-47
2021/09/08 01:46:29;;;;;;;13.40;9.70;;;17.70;74.40;;;;;;4953428;28;20474;-47
2021/09/08 01:48:58;;;;;;;17.40;9.00;;;17.70;74.50;;;;;;4953233;28;20470;-47
2021/09/08 01:51:24;;;;;;;15.63;9.40;;;17.70;74.60;;;;;;4950084;28;21018;-47
2021/09/08 01:53:51;;;;;;;13.77;9.40;;;17.70;74.60;;;;;;4947956;28;20459;-47
2021/09/08 01:56:18;;;;;;;14.43;9.47;;;17.70;74.60;;;;;;4951552;28;20456;-47
2021/09/08 01:58:45;;;;;;;13.83;9.07;;;17.70;74.70;;;;;;4950126;28;20760;-47
2021/09/08 02:01:12;;;;;;;17.03;10.17;;;17.70;74.60;;;;;;4946302;28;20967;-47
2021/09/08 02:03:39;;;;;;;13.63;9.30;;;17.70;74.50;;;;;;4951457;28;20463;-48
2021/09/08 02:06:25;;;;;;;14.67;8.77;;;17.60;74.50;;;;;;4950232;28;20470;-47
2021/09/08 02:08:53;;;;;;;11.60;8.90;;;17.60;74.60;;;;;;4951093;28;21099;-47
2021/09/08 02:11:20;;;;;;;16.70;10.40;;;17.60;74.60;;;;;;4952060;28;20468;-47
2021/09/08 02:13:48;;;;;;;13.33;9.50;;;17.60;74.60;;;;;;4949306;28;20482;-48
2021/09/08 02:16:18;;;;;;;15.77;10.17;;;17.50;74.70;;;;;;4949605;28;20473;-47
2021/09/08 02:18:45;;;;;;;13.53;9.43;;;17.50;74.80;;;;;;4957304;28;20509;-47
2021/09/08 02:21:12;;;;;;;15.57;9.43;;;17.50;74.90;;;;;;4951285;28;20467;-47
2021/09/08 02:23:39;;;;;;;19.03;10.37;;;17.50;75.00;;;;;;4954179;28;20964;-47
2021/09/08 02:26:05;;;;;;;18.00;9.93;;;17.50;75.00;;;;;;4953341;28;20471;-47
2021/09/08 02:28:32;;;;;;;14.37;9.87;;;17.50;75.10;;;;;;4951125;28;20474;-47
2021/09/08 02:30:59;;;;;;;13.77;10.63;;;17.40;75.10;;;;;;4951682;28;20469;-47
2021/09/08 02:33:26;;;;;;;13.83;9.60;;;17.40;75.20;;;;;;4954734;28;20498;-47
2021/09/08 02:35:53;;;;;;;16.93;10.30;;;17.40;75.30;;;;;;4953579;28;20467;-47
2021/09/08 02:38:20;;;;;;;11.97;9.87;;;17.40;75.30;;;;;;4948019;29;20810;-43
2021/09/08 02:40:47;;;;;;;13.03;9.43;;;17.40;75.40;;;;;;4949958;28;20458;-43
2021/09/08 02:43:14;;;;;;;18.90;9.57;;;17.30;75.40;;;;;;4950285;28;20584;-43
2021/09/08 02:45:40;;;;;;;15.93;9.00;;;17.30;75.50;;;;;;4954451;28;20473;-43
2021/09/08 02:48:07;;;;;;;13.67;9.80;;;17.30;75.50;;;;;;4946707;28;20467;-43
2021/09/08 02:50:34;;;;;;;15.67;11.00;;;17.30;75.50;;;;;;4948315;28;20829;-42
2021/09/08 02:53:01;;;;;;;13.27;10.13;;;17.30;75.60;;;;;;4949113;28;20491;-42
2021/09/08 02:55:27;;;;;;;14.33;10.70;;;17.30;75.70;;;;;;4949697;28;20591;-42
2021/09/08 02:57:54;;;;;;;11.97;9.40;;;17.30;75.80;;;;;;4950954;28;20467;-43
2021/09/08 03:00:21;;;;;;;12.70;9.80;;;17.30;75.80;;;;;;4949995;28;20497;-46
2021/09/08 03:02:47;;;;;;;14.13;9.17;;;17.20;75.80;;;;;;4948209;28;20468;-46
2021/09/08 03:05:14;;;;;;;18.77;11.43;;;17.20;75.90;;;;;;4954209;28;20521;-47
2021/09/08 03:07:41;;;;;;;18.00;11.50;;;17.20;75.90;;;;;;4954077;28;20470;-47
2021/09/08 03:10:08;;;;;;;15.10;10.40;;;17.20;76.00;;;;;;4953376;28;20467;-47
2021/09/08 03:12:35;;;;;;;11.80;9.13;;;17.20;76.00;;;;;;4952515;28;20497;-46
2021/09/08 03:15:02;;;;;;;13.37;9.03;;;17.10;76.00;;;;;;4948920;28;20460;-47
2021/09/08 03:17:29;;;;;;;13.87;9.90;;;17.10;76.20;;;;;;4954647;28;20465;-47
2021/09/08 03:19:56;;;;;;;14.10;9.23;;;17.10;76.10;;;;;;4951424;28;20502;-47
2021/09/08 03:22:23;;;;;;;14.30;9.60;;;17.10;76.10;;;;;;4948461;28;20486;-46
2021/09/08 03:24:51;;;;;;;12.63;9.90;;;17.10;76.30;;;;;;4938035;28;20473;-47
2021/09/08 03:27:18;;;;;;;13.13;10.00;;;17.10;76.30;;;;;;4939834;28;20475;-47
2021/09/08 03:29:44;;;;;;;14.67;10.90;;;17.10;76.40;;;;;;4949484;28;20453;-46
2021/09/08 03:32:11;;;;;;;17.33;11.17;;;17.10;76.50;;;;;;4949348;28;20996;-47
2021/09/08 03:34:38;;;;;;;18.60;11.20;;;17.10;76.60;;;;;;4948335;29;20466;-46
2021/09/08 03:37:04;;;;;;;15.07;11.10;;;17.10;76.60;;;;;;4947905;29;20448;-47
2021/09/08 03:39:31;;;;;;;16.57;10.73;;;17.00;76.70;;;;;;4950039;28;20461;-47
2021/09/08 03:41:58;;;;;;;13.43;10.00;;;17.00;76.70;;;;;;4950915;28;20455;-47
2021/09/08 03:44:25;;;;;;;14.17;10.40;;;17.00;76.80;;;;;;4949938;28;20478;-47
2021/09/08 03:46:52;;;;;;;14.63;11.00;;;17.00;76.80;;;;;;4952722;29;20466;-47
2021/09/08 03:49:18;;;;;;;14.23;10.47;;;17.00;76.80;;;;;;4950438;28;20828;-46
2021/09/08 03:51:45;;;;;;;14.43;10.63;;;17.00;76.90;;;;;;4949680;28;20522;-47
2021/09/08 03:54:12;;;;;;;14.27;10.53;;;17.00;76.90;;;;;;4949859;28;20992;-47
2021/09/08 03:56:39;;;;;;;15.23;10.03;;;17.00;77.00;;;;;;4947113;28;20482;-47
2021/09/08 03:59:06;;;;;;;15.17;10.60;;;16.90;77.10;;;;;;4946373;28;20469;-47
2021/09/08 04:01:33;;;;;;;15.20;10.70;;;16.90;77.20;;;;;;4950187;28;20463;-47
2021/09/08 04:04:00;;;;;;;18.00;11.87;;;16.90;77.10;;;;;;4948822;29;20467;-47
2021/09/08 04:06:27;;;;;;;18.73;10.63;;;16.90;77.20;;;;;;4948241;28;20546;-47
2021/09/08 04:08:53;;;;;;;14.13;10.93;;;16.90;77.30;;;;;;4951730;28;20992;-47
2021/09/08 04:11:20;;;;;;;16.00;11.00;;;16.90;77.40;;;;;;4951738;28;20843;-47
2021/09/08 04:13:47;;;;;;;18.43;12.37;;;16.80;77.50;;;;;;4951796;28;20502;-47
2021/09/08 04:16:13;;;;;;;13.60;10.30;;;16.80;77.50;;;;;;4951094;28;20565;-47
2021/09/08 04:18:40;;;;;;;15.10;10.07;;;16.80;77.60;;;;;;4948409;28;20455;-46
2021/09/08 04:21:07;;;;;;;16.87;10.60;;;16.80;77.70;;;;;;4950998;28;20493;-47
2021/09/08 04:23:34;;;;;;;16.10;11.50;;;16.80;77.70;;;;;;4948635;28;20992;-47
2021/09/08 04:26:01;;;;;;;13.77;10.70;;;16.80;77.80;;;;;;4948762;28;20883;-46
2021/09/08 04:28:28;;;;;;;20.20;11.87;;;16.80;77.80;;;;;;4949003;28;20470;-47
2021/09/08 04:30:54;;;;;;;15.07;10.97;;;16.70;77.80;;;;;;4951301;28;20826;-47
2021/09/08 04:33:21;;;;;;;14.00;10.87;;;16.70;77.90;;;;;;4946863;28;20502;-47
2021/09/08 04:35:48;;;;;;;14.10;10.70;;;16.70;77.90;;;;;;4946915;28;20469;-47
2021/09/08 04:38:15;;;;;;;13.90;11.30;;;16.70;78.00;;;;;;4950977;28;20458;-47
2021/09/08 04:40:41;;;;;;;16.03;11.70;;;16.70;78.00;;;;;;4952048;28;20477;-46
2021/09/08 04:43:08;;;;;;;17.90;12.73;;;16.70;78.10;;;;;;4952659;28;20467;-46
2021/09/08 04:45:35;;;;;;;16.40;11.90;;;16.70;78.10;;;;;;4946543;29;20935;-46
2021/09/08 04:48:01;;;;;;;14.20;11.53;;;16.70;78.20;;;;;;4950979;28;20463;-47
2021/09/08 04:50:28;;;;;;;16.27;11.47;;;16.70;78.20;;;;;;4952145;28;20821;-47
2021/09/08 04:52:55;;;;;;;16.60;11.17;;;16.60;78.30;;;;;;4949199;29;20487;-47
2021/09/08 04:55:22;;;;;;;14.90;11.50;;;16.60;78.30;;;;;;4946775;28;20482;-47
2021/09/08 04:57:48;;;;;;;12.70;10.50;;;16.60;78.40;;;;;;4950560;28;20455;-47
2021/09/08 05:00:15;;;;;;;18.50;12.80;;;16.60;78.40;;;;;;4947168;28;20804;-47
2021/09/08 05:02:42;;;;;;;14.33;11.53;;;16.60;78.40;;;;;;4948725;28;20475;-47
2021/09/08 05:05:09;;;;;;;15.20;11.80;;;16.60;78.50;;;;;;4951015;28;20458;-46
2021/09/08 05:07:37;;;;;;;18.10;11.93;;;16.60;78.50;;;;;;4942544;28;20886;-47
2021/09/08 05:10:04;;;;;;;15.20;11.40;;;16.60;78.60;;;;;;4947502;28;20455;-47
2021/09/08 05:12:33;;;;;;;14.17;11.40;;;16.60;78.70;;;;;;4947215;28;20490;-47
2021/09/08 05:15:01;;;;;;;15.00;11.40;;;16.60;78.70;;;;;;4946858;28;20458;-47
2021/09/08 05:17:28;;;;;;;23.43;12.57;;;16.60;78.80;;;;;;4946649;28;20457;-46
2021/09/08 05:19:55;;;;;;;16.83;12.00;;;16.60;78.80;;;;;;4950951;28;20473;-47
2021/09/08 05:22:22;;;;;;;15.70;11.80;;;16.60;78.90;;;;;;4944400;28;20459;-47
2021/09/08 05:24:49;;;;;;;15.00;11.23;;;16.60;78.90;;;;;;4947937;28;20459;-47
2021/09/08 05:27:15;;;;;;;17.37;12.13;;;16.60;79.00;;;;;;4948867;29;20447;-46
2021/09/08 05:29:42;;;;;;;15.30;11.30;;;16.60;79.00;;;;;;4946749;28;20458;-46
2021/09/08 05:32:09;;;;;;;19.27;12.37;;;16.60;79.10;;;;;;4951150;28;20462;-47
2021/09/08 05:34:36;;;;;;;25.80;12.60;;;16.60;79.10;;;;;;4951064;28;20498;-46
2021/09/08 05:37:03;;;;;;;23.03;12.40;;;16.60;79.10;;;;;;4949571;28;20455;-46
2021/09/08 05:39:29;;;;;;;24.03;13.90;;;16.70;79.10;;;;;;4946787;28;20455;-47
2021/09/08 05:41:56;;;;;;;18.40;12.00;;;16.70;79.20;;;;;;4949278;28;20797;-47
2021/09/08 05:44:23;;;;;;;19.10;11.77;;;16.70;79.20;;;;;;4950227;29;20832;-46
2021/09/08 05:46:50;;;;;;;21.30;14.27;;;16.70;79.30;;;;;;4949222;28;20478;-47
2021/09/08 05:49:16;;;;;;;16.33;12.33;;;16.70;79.30;;;;;;4952427;28;20578;-47
2021/09/08 05:51:43;;;;;;;16.97;12.00;;;16.80;79.30;;;;;;4948163;28;20902;-47
2021/09/08 05:54:10;;;;;;;19.13;13.90;;;16.80;79.30;;;;;;4954140;28;20502;-46
2021/09/08 05:56:37;;;;;;;23.50;15.50;;;16.80;79.30;;;;;;4952795;28;20455;-47
2021/09/08 05:59:03;;;;;;;19.37;12.57;;;16.90;79.30;;;;;;4953689;29;20469;-47
2021/09/08 06:01:30;;;;;;;16.40;12.87;;;16.90;79.30;;;;;;4953194;28;20471;-46
2021/09/08 06:03:58;;;;;;;21.13;12.13;;;16.90;79.30;;;;;;4951155;28;20987;-47
2021/09/08 06:06:25;;;;;;;19.17;13.20;;;16.90;79.30;;;;;;4952970;28;20538;-47
2021/09/08 06:08:51;;;;;;;16.00;12.03;;;17.00;79.30;;;;;;4952964;28;20460;-46
2021/09/08 06:11:18;;;;;;;17.70;13.47;;;17.00;79.30;;;;;;4952363;29;20562;-47
2021/09/08 06:13:47;;;;;;;18.93;12.20;;;17.00;79.40;;;;;;4953750;28;20510;-47
2021/09/08 06:16:14;;;;;;;18.47;12.87;;;17.10;79.20;;;;;;4954900;28;21007;-47
2021/09/08 06:18:40;;;;;;;17.27;13.07;;;17.10;79.20;;;;;;4952097;28;20491;-47
2021/09/08 06:21:07;;;;;;;18.37;12.50;;;17.20;79.30;;;;;;4955050;28;20489;-47
2021/09/08 06:23:34;;;;;;;18.53;13.20;;;17.30;79.30;;;;;;4955127;28;20495;-47
2021/09/08 06:26:01;;;;;;;19.80;13.60;;;17.30;79.20;;;;;;4954494;28;20925;-47
2021/09/08 06:28:27;;;;;;;20.50;15.13;;;17.40;79.20;;;;;;4967559;28;20469;-47
2021/09/08 06:30:54;;;;;;;15.77;12.33;;;17.50;79.20;;;;;;4958447;28;20466;-46
2021/09/08 06:33:21;;;;;;;21.80;14.43;;;17.60;79.10;;;;;;4959168;28;20487;-46
2021/09/08 06:35:52;;;;;;;16.90;12.00;;;17.60;78.90;;;;;;4953863;28;20463;-46
2021/09/08 06:38:19;;;;;;;19.53;12.30;;;17.70;78.80;;;;;;4954471;28;20538;-47
2021/09/08 06:40:47;;;;;;;19.73;13.80;;;17.80;78.40;;;;;;4952409;28;20530;-47
2021/09/08 06:43:13;;;;;;;20.00;13.53;;;17.90;78.00;;;;;;4948147;28;20458;-46
2021/09/08 06:45:40;;;;;;;15.40;11.50;;;18.00;77.70;;;;;;4951894;28;20470;-46
2021/09/08 06:48:07;;;;;;;15.97;11.53;;;18.10;77.60;;;;;;4946706;28;20463;-46
2021/09/08 06:50:33;;;;;;;17.30;13.60;;;18.20;77.20;;;;;;4947983;28;20459;-46
2021/09/08 06:53:00;;;;;;;17.63;13.77;;;18.40;76.50;;;;;;4943565;28;21083;-46
2021/09/08 06:55:27;;;;;;;18.10;12.50;;;18.50;76.10;;;;;;4953648;28;20506;-46
2021/09/08 06:57:54;;;;;;;18.47;13.00;;;18.60;75.80;;;;;;4951156;28;20835;-46
2021/09/08 07:00:21;;;;;;;15.47;13.00;;;18.70;75.00;;;;;;4943513;28;20462;-46
2021/09/08 07:02:48;;;;;;;19.47;13.30;;;18.70;74.80;;;;;;4951497;28;20451;-46
2021/09/08 07:05:17;;;;;;;15.00;13.33;;;18.80;74.60;;;;;;4951142;28;20491;-46
2021/09/08 07:07:44;;;;;;;16.63;12.23;;;18.90;74.20;;;;;;4945654;28;20459;-46
2021/09/08 07:10:11;;;;;;;19.17;12.80;;;19.00;73.80;;;;;;4949857;28;21076;-46
2021/09/08 07:12:37;;;;;;;16.37;11.80;;;19.10;73.90;;;;;;4951106;28;20538;-45
2021/09/08 07:15:05;;;;;;;14.53;11.67;;;19.20;73.90;;;;;;4946579;28;21724;-46
2021/09/08 07:17:32;;;;;;;14.90;11.70;;;19.30;73.90;;;;;;4949517;28;20459;-46
2021/09/08 07:19:59;;;;;;;15.83;11.43;;;19.40;73.60;;;;;;4951665;28;20459;-47
2021/09/08 07:22:26;;;;;;;14.30;12.03;;;19.50;73.10;;;;;;4949978;28;20455;-46
2021/09/08 07:24:52;;;;;;;18.60;12.00;;;19.70;72.00;;;;;;4951060;28;20471;-46
2021/09/08 07:27:19;;;;;;;13.23;11.40;;;19.70;71.10;;;;;;4951506;28;20452;-46
2021/09/08 07:29:46;;;;;;;15.87;13.70;;;19.80;70.60;;;;;;4948898;28;20550;-46
2021/09/08 07:32:13;;;;;;;17.27;12.13;;;19.90;70.40;;;;;;4948715;28;20463;-47
2021/09/08 07:34:40;;;;;;;15.33;13.43;;;20.00;70.30;;;;;;4945287;28;20506;-46
2021/09/08 07:37:07;;;;;;;21.30;11.60;;;20.10;70.20;;;;;;4950782;28;20832;-47
2021/09/08 07:39:34;;;;;;;14.97;12.10;;;20.20;69.20;;;;;;4950339;28;20455;-46
2021/09/08 07:42:01;;;;;;;21.00;11.47;;;20.40;68.40;;;;;;4949732;28;20825;-46
2021/09/08 07:44:28;;;;;;;18.90;11.80;;;20.50;68.00;;;;;;4947216;28;20463;-46
2021/09/08 07:46:56;;;;;;;15.90;11.43;;;20.70;67.80;;;;;;4929529;29;20839;-46
2021/09/08 07:49:23;;;;;;;16.57;11.83;;;20.80;67.10;;;;;;4949384;28;20555;-46
2021/09/08 07:51:50;;;;;;;17.67;11.87;;;21.00;66.40;;;;;;4950595;28;20460;-46
2021/09/08 07:54:17;;;;;;;15.33;11.83;;;21.10;65.60;;;;;;4954092;28;20493;-47
2021/09/08 07:56:43;;;;;;;14.97;11.30;;;21.20;65.40;;;;;;4953924;28;20455;-46
2021/09/08 07:59:10;;;;;;;14.50;10.80;;;21.40;65.40;;;;;;4948864;28;20455;-47
2021/09/08 08:01:37;;;;;;;16.40;11.83;;;21.60;65.50;;;;;;4948879;28;20465;-47
2021/09/08 08:04:04;;;;;;;16.53;11.07;;;21.80;65.40;;;;;;4957385;28;20521;-47
2021/09/08 08:06:31;;;;;;;17.83;11.63;;;22.00;64.60;;;;;;4953603;28;20455;-47
2021/09/08 08:08:58;;;;;;;14.57;11.90;;;22.20;63.70;;;;;;4949919;28;20462;-47
2021/09/08 08:11:25;;;;;;;22.33;12.37;;;22.40;62.80;;;;;;4953326;28;20463;-47
2021/09/08 08:13:51;;;;;;;14.17;11.50;;;22.50;62.10;;;;;;4952332;28;20502;-47
2021/09/08 08:16:29;;;;;;;15.57;12.23;;;22.60;61.60;;;;;;4950422;28;20476;-47
2021/09/08 08:18:56;;;;;;;13.70;11.00;;;22.70;61.60;;;;;;4947544;28;20462;-47
2021/09/08 08:21:23;;;;;;;15.07;11.10;;;22.90;61.60;;;;;;4952174;28;20469;-47
2021/09/08 08:23:50;;;;;;;11.73;9.97;;;23.10;61.40;;;;;;4952934;28;20851;-47
2021/09/08 08:26:18;;;;;;;11.43;9.90;;;23.40;60.60;;;;;;4949257;28;20470;-47
2021/09/08 08:28:44;;;;;;;13.40;11.00;;;23.60;59.90;;;;;;4951314;28;20550;-47
2021/09/08 08:31:11;;;;;;;16.33;11.43;;;23.70;59.00;;;;;;4956047;28;20461;-47
2021/09/08 08:33:39;;;;;;;13.57;10.10;;;23.90;58.80;;;;;;4956898;28;20561;-47
2021/09/08 08:36:05;;;;;;;13.50;10.50;;;24.10;58.80;;;;;;4956443;28;20472;-47
2021/09/08 08:38:32;;;;;;;16.83;11.97;;;24.30;58.20;;;;;;4954600;28;20968;-47
2021/09/08 08:40:59;;;;;;;13.00;10.53;;;24.50;57.50;;;;;;4955907;28;20462;-47
2021/09/08 08:43:26;;;;;;;15.00;11.77;;;24.60;56.80;;;;;;4956083;28;20834;-47
2021/09/08 08:45:54;;;;;;;14.63;11.27;;;24.80;56.40;;;;;;4959103;28;20460;-47
2021/09/08 08:48:23;;;;;;;14.43;11.20;;;25.00;56.10;;;;;;4956017;28;20484;-47
2021/09/08 08:50:51;;;;;;;11.40;9.63;;;25.20;55.70;;;;;;4956049;28;20835;-47
2021/09/08 08:53:18;;;;;;;18.37;11.10;;;25.40;55.40;;;;;;4957929;28;20464;-47
2021/09/08 08:55:45;;;;;;;16.37;10.97;;;25.60;55.00;;;;;;4958755;28;20454;-47
2021/09/08 08:58:11;;;;;;;16.07;11.40;;;25.90;54.50;;;;;;4955391;29;20461;-47
2021/09/08 09:00:40;;;;;;;13.90;10.80;;;25.90;53.50;;;;;;4957003;28;20468;-48
2021/09/08 09:03:07;;;;;;;20.60;11.00;;;25.90;53.20;;;;;;4950875;28;20478;-48
2021/09/08 09:05:39;;;;;;;16.43;11.73;;;25.90;53.50;;;;;;4952107;28;20829;-48
2021/09/08 09:08:10;;;;;;;14.67;11.13;;;25.90;53.60;;;;;;4952659;28;20481;-47
2021/09/08 09:10:38;;;;;;;15.60;10.40;;;26.00;53.90;;;;;;4953662;28;20534;-47
2021/09/08 09:13:08;;;;;;;13.80;11.10;;;26.10;53.50;;;;;;4953718;28;20501;-48
2021/09/08 09:15:35;;;;;;;16.83;11.80;;;26.30;52.80;;;;;;4958707;28;20517;-48
2021/09/08 09:18:03;;;;;;;11.70;10.27;;;26.40;52.30;;;;;;4956380;28;20462;-48
2021/09/08 09:20:30;;;;;;;15.53;11.10;;;26.50;52.50;;;;;;4955847;28;20822;-48
2021/09/08 09:23:02;;;;;;;14.50;10.47;;;26.70;52.70;;;;;;4956278;28;20466;-48
2021/09/08 09:25:38;;;;;;;12.00;10.33;;;26.80;52.10;;;;;;4955135;28;20458;-47
2021/09/08 09:28:07;;;;;;;13.17;10.47;;;26.90;51.80;;;;;;4950226;28;20481;-47
2021/09/08 09:30:39;;;;;;;13.57;10.27;;;27.00;51.50;;;;;;4957772;28;20553;-47
2021/09/08 09:33:30;;;;;;;12.77;9.63;;;27.10;51.50;;;;;;4962698;28;20458;-47
2021/09/08 09:36:12;;;;;;;12.77;10.73;;;27.10;51.90;;;;;;4952847;28;20525;-47
2021/09/08 09:38:40;;;;;;;12.20;9.87;;;27.00;51.20;;;;;;4951568;28;20959;-47
2021/09/08 09:41:09;;;;;;;14.13;11.47;;;26.90;51.30;;;;;;4948299;28;20470;-47
2021/09/08 09:43:47;;;;;;;13.70;10.17;;;26.70;51.40;;;;;;4946859;28;20468;-47
2021/09/08 09:46:14;;;;;;;13.87;11.43;;;26.60;51.50;;;;;;4950665;28;20533;-48
2021/09/08 09:48:41;;;;;;;13.00;11.07;;;26.40;51.30;;;;;;4952620;28;20454;-49
2021/09/08 09:51:13;;;;;;;16.67;9.80;;;26.30;51.70;;;;;;4950163;28;20477;-47
2021/09/08 09:53:41;;;;;;;15.70;10.30;;;26.20;51.90;;;;;;4948373;28;20463;-49
2021/09/08 09:56:09;;;;;;;13.70;10.10;;;26.20;52.40;;;;;;4949356;28;20462;-47
2021/09/08 09:58:38;;;;;;;11.47;10.27;;;26.20;52.60;;;;;;4955118;28;20489;-48
2021/09/08 10:01:06;;;;;;;13.83;10.77;;;26.20;52.20;;;;;;4951308;28;20458;-48
2021/09/08 10:03:33;;;;;;;16.53;9.50;;;26.20;52.50;;;;;;4953719;28;20541;-48
2021/09/08 10:06:01;;;;;;;17.17;9.10;;;26.30;51.80;;;;;;4951719;28;20517;-47
2021/09/08 10:08:37;;;;;;;11.23;9.30;;;26.50;51.50;;;;;;4951900;28;20454;-48
2021/09/08 10:11:07;;;;;;;10.73;9.17;;;26.70;50.60;;;;;;4950401;28;20473;-48
2021/09/08 10:13:48;;;;;;;11.00;9.90;;;26.90;51.20;;;;;;4952476;28;20863;-48
2021/09/08 10:16:15;;;;;;;10.00;8.80;;;27.20;50.60;;;;;;4950862;28;20454;-48
2021/09/08 10:18:42;;;;;;;11.17;8.97;;;27.60;49.70;;;;;;4948420;28;20446;-48
2021/09/08 10:21:12;;;;;;;11.00;9.83;;;28.00;48.40;;;;;;4955127;28;20455;-48
2021/09/08 10:23:43;;;;;;;11.73;9.07;;;28.20;46.90;;;;;;4951479;28;20462;-48
2021/09/08 10:26:13;;;;;;;10.70;9.60;;;28.60;46.40;;;;;;4948975;28;20562;-48
2021/09/08 10:28:42;;;;;;;11.53;9.00;;;29.10;45.70;;;;;;4953209;28;20204;-48
2021/09/08 10:31:11;;;;;;;10.80;9.20;;;29.40;45.20;;;;;;4953137;28;20207;-48
2021/09/08 10:33:42;;;;;;;13.07;11.05;;;29.80;44.80;;;;;;4950767;29;20886;-48
2021/09/08 10:36:13;;;;;;;11.45;10.35;;;30.00;43.90;;;;;;4951613;28;20199;-48
2021/09/08 10:38:41;;;;;;;10.15;9.05;;;30.40;43.60;;;;;;4952215;28;20210;-48
2021/09/08 10:41:09;;;;;;;10.20;8.52;;;30.70;43.40;;;;;;4955098;28;20656;-45
2021/09/08 10:43:37;;;;;;;13.50;10.40;;;30.90;42.70;;;;;;4957818;28;20294;-48
2021/09/08 10:46:08;;;;;;;11.13;8.98;;;31.10;42.70;;;;;;4958887;28;20203;-46
2021/09/08 10:48:40;;;;;;;13.38;10.85;;;31.20;42.40;;;;;;4959370;28;20206;-46
2021/09/08 10:51:16;;;;;;;13.35;9.32;;;31.30;42.40;;;;;;4957321;28;20244;-46
2021/09/08 10:54:06;;;;;;;11.40;9.65;;;31.30;42.50;;;;;;4960951;28;20209;-46
2021/09/08 10:56:46;;;;;;;10.90;9.80;;;31.20;42.70;;;;;;4955512;28;20203;-46
2021/09/08 10:59:14;;;;;;;10.63;9.00;;;31.00;42.80;;;;;;4959966;28;20213;-46
2021/09/08 11:01:42;;;;;;;10.30;9.27;;;30.70;43.50;;;;;;4959812;28;20218;-47
2021/09/08 11:04:14;;;;;;;11.75;10.48;;;30.30;44.20;;;;;;4955195;28;20241;-47
2021/09/08 11:06:48;;;;;;;10.73;9.60;;;30.00;44.70;;;;;;4964160;28;20693;-46
2021/09/08 11:09:18;;;;;;;11.45;9.85;;;29.80;44.90;;;;;;4959607;28;20245;-47
2021/09/08 11:11:50;;;;;;;10.90;9.50;;;29.80;45.30;;;;;;4979251;28;20305;-46
2021/09/08 11:14:17;;;;;;;11.77;9.82;;;29.60;45.60;;;;;;4957166;28;20232;-47
2021/09/08 11:16:44;;;;;;;11.33;10.23;;;29.40;45.60;;;;;;4963363;28;20749;-47
2021/09/08 11:19:13;;;;;;;11.10;9.83;;;29.10;45.90;;;;;;4959300;28;20207;-47
2021/09/08 11:21:40;;;;;;;11.77;9.60;;;28.90;46.00;;;;;;4958218;28;20226;-47
2021/09/08 11:24:09;;;;;;;11.13;9.50;;;28.60;46.60;;;;;;4961381;28;20210;-47
2021/09/08 11:26:38;;;;;;;10.83;9.73;;;28.50;46.70;;;;;;4961119;28;20207;-47
2021/09/08 11:29:08;;;;;;;12.30;10.07;;;28.30;47.70;;;;;;4963142;28;20556;-48
2021/09/08 11:31:39;;;;;;;10.70;9.60;;;28.20;47.40;;;;;;4958741;28;20959;-47
2021/09/08 11:34:26;;;;;;;11.40;10.17;;;27.80;47.10;;;;;;4956628;29;20510;-47
2021/09/08 11:36:56;;;;;;;10.00;9.10;;;27.60;47.80;;;;;;4959954;28;20523;-47
2021/09/08 11:39:24;;;;;;;13.67;9.90;;;27.40;48.20;;;;;;4959263;28;20904;-47
2021/09/08 11:42:04;;;;;;;11.33;9.40;;;27.30;48.20;;;;;;4958496;28;20538;-47
2021/09/08 11:44:34;;;;;;;12.60;9.80;;;27.20;48.70;;;;;;4961032;28;20470;-48
2021/09/08 11:47:15;;;;;;;12.70;9.67;;;27.00;49.50;;;;;;4958264;28;20474;-47
2021/09/08 11:49:42;;;;;;;10.63;8.80;;;26.90;49.40;;;;;;4958101;28;22103;-47
2021/09/08 11:52:16;;;;;;;10.53;8.93;;;26.80;49.10;;;;;;4956432;28;20481;-47
2021/09/08 11:54:48;;;;;;;13.10;8.90;;;26.60;49.60;;;;;;4953815;28;20494;-48
2021/09/08 11:57:22;;;;;;;9.37;8.47;;;26.60;49.90;;;;;;4959456;28;20554;-48
2021/09/08 11:59:52;;;;;;;10.50;9.40;;;26.50;49.90;;;;;;4957915;28;20476;-48
2021/09/08 12:02:20;;;;;;;10.40;9.40;;;26.50;50.20;;;;;;4954414;28;20450;-48
2021/09/08 12:04:47;;;;;;;19.77;10.10;;;26.50;49.40;;;;;;4959096;28;20505;-48
2021/09/08 12:07:14;;;;;;;11.17;8.63;;;26.40;49.60;;;;;;4957424;28;20470;-47
2021/09/08 12:09:43;;;;;;;10.30;9.30;;;26.40;49.50;;;;;;4958592;28;20477;-48
2021/09/08 12:12:16;;;;;;;9.57;8.30;;;26.40;49.80;;;;;;4955548;28;21037;-47
2021/09/08 12:14:46;;;;;;;9.63;8.63;;;26.40;49.80;;;;;;4952590;28;20498;-48
2021/09/08 12:17:27;;;;;;;10.10;8.57;;;26.40;50.10;;;;;;4960583;28;20466;-47
2021/09/08 12:20:01;;;;;;;11.00;9.20;;;26.40;49.90;;;;;;4956233;28;20454;-48
2021/09/08 12:22:36;;;;;;;9.23;7.77;;;26.40;49.50;;;;;;4954609;28;20455;-47
2021/09/08 12:25:05;;;;;;;8.87;7.83;;;26.40;49.40;;;;;;4954298;28;20472;-48
2021/09/08 12:27:35;;;;;;;10.27;8.93;;;26.40;49.40;;;;;;4957995;28;20455;-48
2021/09/08 12:30:20;;;;;;;9.17;8.20;;;26.40;49.80;;;;;;4957704;28;20469;-48
2021/09/08 12:32:58;;;;;;;8.97;8.07;;;26.30;49.40;;;;;;4959147;28;20519;-47
2021/09/08 12:35:50;;;;;;;11.00;8.73;;;26.30;49.50;;;;;;4957915;28;20553;-48